createdAt,value
2023-03-29T00:01:35.950Z,98439.28
2023-03-29T00:04:39.199Z,98402.03
2023-03-29T00:07:41.468Z,98426.84
2023-03-29T00:10:43.631Z,98441.13
2023-03-29T00:13:45.751Z,98456.78
2023-03-29T00:16:47.917Z,98441.28
2023-03-29T00:19:50.063Z,98438.66
2023-03-29T00:22:52.159Z,98448.56
2023-03-29T00:25:54.540Z,98440.91
2023-03-29T00:28:56.553Z,98445.84
2023-03-29T00:31:59.153Z,98443.34
2023-03-29T00:35:01.640Z,98452.56
2023-03-29T00:38:06.414Z,98453.78
2023-03-29T00:41:09.415Z,98466.16
2023-03-29T00:44:49.072Z,98455.31
2023-03-29T00:47:58.708Z,98460.53
2023-03-29T00:51:07.562Z,98465.06
2023-03-29T00:54:15.489Z,98463.16
2023-03-29T00:57:20.838Z,98421.19
2023-03-29T01:00:28.822Z,98445.88
2023-03-29T01:03:41.644Z,98449.28
2023-03-29T01:06:49.428Z,98443.13
2023-03-29T01:09:58.508Z,98446.69
2023-03-29T01:13:06.905Z,98380.84
2023-03-29T01:16:12.012Z,98434.34
2023-03-29T01:19:19.206Z,98429.41
2023-03-29T01:22:39.056Z,98422.25
2023-03-29T01:26:19.795Z,98429.53
2023-03-29T01:29:26.424Z,98432.44
2023-03-29T01:32:35.526Z,98422.53
2023-03-29T01:35:45.649Z,98420.06
2023-03-29T01:39:05.586Z,98417.31
2023-03-29T01:42:46.916Z,98409.66
2023-03-29T01:46:07.760Z,98416.78
2023-03-29T01:49:27.777Z,98381.78
2023-03-29T01:52:36.239Z,98391.56
2023-03-29T01:55:47.538Z,98412.81
2023-03-29T01:58:54.584Z,98411.84
2023-03-29T02:02:01.404Z,98405.53
2023-03-29T02:05:04.137Z,98389.50
2023-03-29T02:08:10.010Z,98405.13
2023-03-29T02:11:12.118Z,98410.84
2023-03-29T02:14:14.218Z,98411.56
2023-03-29T02:17:20.621Z,98373.53
2023-03-29T02:20:30.342Z,98403.59
2023-03-29T02:23:41.653Z,98405.38
2023-03-29T02:26:43.693Z,98362.28
2023-03-29T02:29:47.957Z,98402.59
2023-03-29T02:33:10.903Z,98410.94
2023-03-29T02:36:19.097Z,98413.28
2023-03-29T02:39:23.125Z,98411.38
2023-03-29T02:42:28.291Z,98413.00
2023-03-29T02:45:31.698Z,98406.03
2023-03-29T02:48:37.344Z,98406.31
2023-03-29T02:51:39.696Z,98358.03
2023-03-29T02:54:45.571Z,98408.78
2023-03-29T02:57:47.615Z,98356.81
2023-03-29T03:00:50.595Z,98366.66
2023-03-29T03:03:52.914Z,98404.13
2023-03-29T03:06:55.457Z,98399.50
2023-03-29T03:09:57.919Z,98374.25
2023-03-29T03:13:00.085Z,98395.09
2023-03-29T03:16:04.418Z,98389.34
2023-03-29T03:19:07.529Z,98383.97
2023-03-29T03:22:10.145Z,98379.72
2023-03-29T03:25:12.411Z,98366.44
2023-03-29T03:28:15.272Z,98386.31
2023-03-29T03:31:18.124Z,98389.75
2023-03-29T03:34:46.476Z,98377.81
2023-03-29T03:37:48.655Z,98386.47
2023-03-29T03:40:56.572Z,98377.00
2023-03-29T03:43:59.390Z,98377.13
2023-03-29T03:47:01.713Z,98371.25
2023-03-29T03:50:05.443Z,98368.09
2023-03-29T03:53:07.790Z,98369.06
2023-03-29T03:56:30.386Z,98355.22
2023-03-29T03:59:41.637Z,98363.97
2023-03-29T04:02:48.424Z,98360.13
2023-03-29T04:05:50.911Z,98347.94
2023-03-29T04:08:55.033Z,98326.16
2023-03-29T04:12:09.501Z,98351.66
2023-03-29T04:15:14.293Z,98347.41
2023-03-29T04:18:24.333Z,98348.63
2023-03-29T04:21:29.972Z,98349.31
2023-03-29T04:24:31.911Z,98341.50
2023-03-29T04:28:07.441Z,98341.34
2023-03-29T04:31:29.725Z,98339.03
2023-03-29T04:34:46.807Z,98339.31
2023-03-29T04:37:51.292Z,98331.47
2023-03-29T04:40:56.167Z,98306.97
2023-03-29T04:44:03.940Z,98314.78
2023-03-29T04:47:07.120Z,98345.47
2023-03-29T04:50:41.737Z,98355.34
2023-03-29T04:53:43.789Z,98354.38
2023-03-29T04:56:46.262Z,98318.19
2023-03-29T05:00:15.460Z,98350.94
2023-03-29T05:03:45.615Z,98336.28
2023-03-29T05:06:54.643Z,98336.28
2023-03-29T05:09:57.711Z,98322.28
2023-03-29T05:12:59.918Z,98346.66
2023-03-29T05:16:04.622Z,98321.41
2023-03-29T05:19:07.003Z,98330.56
2023-03-29T05:22:12.050Z,98331.91
2023-03-29T05:25:14.267Z,98269.69
2023-03-29T05:28:18.480Z,98323.31
2023-03-29T05:31:20.707Z,98312.44
2023-03-29T05:34:27.666Z,98293.13
2023-03-29T05:37:34.545Z,98321.56
2023-03-29T05:40:38.122Z,98318.53
2023-03-29T05:44:08.767Z,98315.66
2023-03-29T05:47:12.182Z,98327.84
2023-03-29T05:50:14.734Z,98324.94
2023-03-29T05:53:17.981Z,98330.72
2023-03-29T05:56:20.154Z,98325.56
2023-03-29T05:59:23.852Z,98328.28
2023-03-29T06:02:26.585Z,98336.44
2023-03-29T06:05:29.052Z,98329.88
2023-03-29T06:08:35.344Z,98330.19
2023-03-29T06:12:01.963Z,98322.31
2023-03-29T06:15:13.628Z,98323.91
2023-03-29T06:18:20.768Z,98330.88
2023-03-29T06:21:23.578Z,98327.88
2023-03-29T06:24:26.238Z,98323.56
2023-03-29T06:27:36.430Z,98321.34
2023-03-29T06:30:39.250Z,98333.06
2023-03-29T06:33:43.405Z,98303.91
2023-03-29T06:37:03.875Z,98334.34
2023-03-29T06:40:07.183Z,98339.44
2023-03-29T06:43:16.057Z,98329.16
2023-03-29T06:46:28.152Z,98334.44
2023-03-29T06:49:32.284Z,98332.69
2023-03-29T06:52:46.412Z,98335.03
2023-03-29T06:55:49.773Z,98331.72
2023-03-29T06:59:07.489Z,98326.59
2023-03-29T07:02:17.689Z,98322.25
2023-03-29T07:05:24.173Z,98332.88
2023-03-29T07:08:31.452Z,98317.88
2023-03-29T07:11:37.070Z,98327.69
2023-03-29T07:14:56.834Z,98320.97
2023-03-29T07:18:04.934Z,98325.03
2023-03-29T07:21:09.068Z,98323.19
2023-03-29T07:24:11.127Z,98325.66
2023-03-29T07:27:13.528Z,98322.06
2023-03-29T07:30:18.147Z,98320.50
2023-03-29T07:33:20.347Z,98327.31
2023-03-29T07:36:34.488Z,98321.03
2023-03-29T07:39:37.396Z,98322.41
2023-03-29T07:42:59.041Z,98322.13
2023-03-29T07:46:05.484Z,98319.91
2023-03-29T07:49:10.127Z,98323.19
2023-03-29T07:52:12.396Z,98321.44
2023-03-29T07:55:15.386Z,98318.69
2023-03-29T07:58:30.612Z,98312.97
2023-03-29T08:01:33.219Z,98310.09
2023-03-29T08:04:38.018Z,98306.06
2023-03-29T08:08:02.994Z,98297.56
2023-03-29T08:11:34.440Z,98305.00
2023-03-29T08:14:39.146Z,98302.75
2023-03-29T08:18:01.666Z,98299.47
2023-03-29T08:21:05.515Z,98305.91
2023-03-29T08:24:08.194Z,98305.19
2023-03-29T08:27:20.236Z,98296.44
2023-03-29T08:30:22.428Z,98295.56
2023-03-29T08:33:25.777Z,98299.31
2023-03-29T08:36:43.640Z,98305.50
2023-03-29T08:40:02.597Z,98309.22
2023-03-29T08:43:14.746Z,98297.00
2023-03-29T08:47:29.004Z,98293.38
2023-03-29T08:50:41.041Z,98253.25
2023-03-29T08:53:50.337Z,98287.81
2023-03-29T08:57:06.795Z,98287.59
2023-03-29T09:00:22.812Z,98290.25
2023-03-29T09:03:30.498Z,98291.31
2023-03-29T09:06:39.371Z,98290.50
2023-03-29T09:09:51.186Z,98291.16
2023-03-29T09:13:26.799Z,98293.59
2023-03-29T09:16:43.537Z,98293.41
2023-03-29T09:20:23.062Z,98297.03
2023-03-29T09:23:37.199Z,98299.09
2023-03-29T09:27:16.914Z,98294.00
2023-03-29T09:30:35.763Z,98283.63
2023-03-29T09:33:46.801Z,98284.41
2023-03-29T09:36:59.011Z,98289.53
2023-03-29T09:40:05.371Z,98292.16
2023-03-29T09:43:32.194Z,98289.09
2023-03-29T09:46:41.938Z,98293.00
2023-03-29T09:49:48.848Z,98277.53
2023-03-29T09:52:51.150Z,98290.78
2023-03-29T09:55:57.042Z,98291.78
2023-03-29T09:59:13.585Z,98287.13
2023-03-29T10:02:16.039Z,98270.63
2023-03-29T10:05:18.664Z,98297.69
2023-03-29T10:08:36.016Z,98286.84
2023-03-29T10:11:39.665Z,98304.06
2023-03-29T10:14:46.126Z,98288.97
2023-03-29T10:17:49.068Z,98282.78
2023-03-29T10:20:51.058Z,98282.34
2023-03-29T10:23:59.680Z,98293.75
2023-03-29T10:27:07.052Z,98289.84
2023-03-29T10:30:13.293Z,98278.28
2023-03-29T10:33:22.181Z,98272.38
2023-03-29T10:36:27.283Z,98283.59
2023-03-29T10:39:34.084Z,98279.75
2023-03-29T10:42:36.151Z,98276.13
2023-03-29T10:45:40.095Z,98270.25
2023-03-29T10:48:47.762Z,98260.84
2023-03-29T10:51:50.844Z,98282.22
2023-03-29T10:54:55.621Z,98274.50
2023-03-29T10:58:06.731Z,98270.63
2023-03-29T11:01:17.696Z,98261.63
2023-03-29T11:04:47.876Z,98257.94
2023-03-29T11:08:31.738Z,98260.75
2023-03-29T11:12:15.959Z,98261.63
2023-03-29T11:15:27.375Z,98256.88
2023-03-29T11:19:14.955Z,98259.00
2023-03-29T11:23:13.997Z,98249.91
2023-03-29T11:26:42.881Z,98253.69
2023-03-29T11:30:06.861Z,98238.25
2023-03-29T11:33:17.968Z,98240.56
2023-03-29T11:36:57.545Z,98240.41
2023-03-29T11:40:11.263Z,98236.06
2023-03-29T11:43:23.153Z,98241.84
2023-03-29T11:46:42.802Z,98239.91
2023-03-29T11:49:52.652Z,98202.38
2023-03-29T11:53:02.226Z,98231.91
2023-03-29T11:56:15.738Z,98226.63
2023-03-29T11:59:41.797Z,98217.00
2023-03-29T12:03:03.207Z,98219.63
2023-03-29T12:06:17.005Z,98218.47
2023-03-29T12:09:33.643Z,98204.91
2023-03-29T12:12:53.170Z,98215.56
2023-03-29T12:16:07.013Z,98199.13
2023-03-29T12:19:24.182Z,98208.22
2023-03-29T12:22:26.546Z,98195.84
2023-03-29T12:25:41.352Z,98192.50
2023-03-29T12:28:49.320Z,98198.78
2023-03-29T12:32:19.431Z,98203.78
2023-03-29T12:36:00.049Z,98194.56
2023-03-29T12:39:21.722Z,98189.63
2023-03-29T12:43:07.155Z,98187.78
2023-03-29T12:46:33.811Z,98175.97
2023-03-29T12:49:39.195Z,98184.91
2023-03-29T12:52:43.102Z,98165.44
2023-03-29T12:55:45.037Z,98169.69
2023-03-29T12:59:05.838Z,98165.63
2023-03-29T13:02:17.885Z,98168.88
2023-03-29T13:05:59.080Z,98169.31
2023-03-29T13:09:24.258Z,98167.69
2023-03-29T13:12:29.632Z,98159.13
2023-03-29T13:15:34.939Z,98130.75
2023-03-29T13:19:06.877Z,98159.91
2023-03-29T13:22:27.677Z,98158.53
2023-03-29T13:25:46.262Z,98158.09
2023-03-29T13:29:09.768Z,98157.88
2023-03-29T13:32:41.211Z,98141.22
2023-03-29T13:35:49.317Z,98137.84
2023-03-29T13:38:54.662Z,98140.13
2023-03-29T13:42:08.395Z,98134.88
2023-03-29T13:45:26.418Z,98133.94
2023-03-29T13:48:46.289Z,98123.38
2023-03-29T13:52:04.752Z,98119.38
2023-03-29T13:55:25.423Z,98115.94
2023-03-29T13:58:38.276Z,98115.94
2023-03-29T14:01:46.983Z,98118.00
2023-03-29T14:04:52.413Z,98072.84
2023-03-29T14:07:55.724Z,98107.91
2023-03-29T14:11:02.483Z,98110.34
2023-03-29T14:14:08.406Z,98108.75
2023-03-29T14:17:22.920Z,98108.53
2023-03-29T14:20:25.746Z,98102.63
2023-03-29T14:23:31.925Z,98101.00
2023-03-29T14:26:36.070Z,98100.56
2023-03-29T14:29:38.604Z,98094.25
2023-03-29T14:32:40.818Z,98100.50
2023-03-29T14:35:42.961Z,98098.69
2023-03-29T14:38:59.725Z,98065.31
2023-03-29T14:42:02.349Z,98090.16
2023-03-29T14:45:06.556Z,98082.66
2023-03-29T14:48:12.481Z,98072.50
2023-03-29T14:51:14.939Z,98082.28
2023-03-29T14:54:22.317Z,98077.34
2023-03-29T14:57:27.594Z,98073.09
2023-03-29T15:00:44.974Z,98062.72
2023-03-29T15:03:57.640Z,98071.91
2023-03-29T15:07:00.134Z,98074.34
2023-03-29T15:10:05.325Z,98062.75
2023-03-29T15:13:08.821Z,98059.94
2023-03-29T15:16:17.030Z,98057.69
2023-03-29T15:19:22.117Z,98054.81
2023-03-29T15:22:24.152Z,98019.38
2023-03-29T15:25:35.294Z,98035.66
2023-03-29T15:28:57.673Z,98049.31
2023-03-29T15:31:59.883Z,98047.88
2023-03-29T15:35:05.230Z,98044.78
2023-03-29T15:38:07.327Z,98038.69
2023-03-29T15:41:10.781Z,98034.44
2023-03-29T15:44:17.476Z,98032.59
2023-03-29T15:47:19.653Z,98041.34
2023-03-29T15:50:22.151Z,98037.25
2023-03-29T15:53:24.578Z,98039.31
2023-03-29T15:56:27.222Z,98030.78
2023-03-29T15:59:31.403Z,98030.34
2023-03-29T16:02:33.738Z,98039.47
2023-03-29T16:05:36.146Z,98003.47
2023-03-29T16:08:38.183Z,98031.13
2023-03-29T16:11:42.072Z,98034.59
2023-03-29T16:14:44.125Z,98032.97
2023-03-29T16:17:46.429Z,98025.00
2023-03-29T16:20:48.474Z,98036.19
2023-03-29T16:23:51.542Z,98015.00
2023-03-29T16:26:55.925Z,98033.34
2023-03-29T16:29:59.173Z,98026.81
2023-03-29T16:33:06.321Z,98048.00
2023-03-29T16:36:08.949Z,98034.16
2023-03-29T16:39:13.624Z,98039.84
2023-03-29T16:42:15.627Z,98038.41
2023-03-29T16:45:18.864Z,98032.91
2023-03-29T16:48:20.920Z,98034.53
2023-03-29T16:51:23.146Z,98038.78
2023-03-29T16:54:25.959Z,98047.88
2023-03-29T16:57:28.529Z,98046.03
2023-03-29T17:00:30.857Z,98044.00
2023-03-29T17:06:35.418Z,98037.47
2023-03-29T17:09:37.613Z,98037.69
2023-03-29T17:12:40.128Z,98037.69
2023-03-29T17:15:42.592Z,98038.88
2023-03-29T17:18:44.915Z,98036.63
2023-03-29T17:21:47.370Z,98036.22
2023-03-29T17:24:50.144Z,97995.69
2023-03-29T17:27:54.587Z,98044.34
2023-03-29T17:30:57.537Z,98036.78
2023-03-29T17:34:01.017Z,98039.84
2023-03-29T17:37:04.344Z,98037.38
2023-03-29T17:40:14.263Z,98043.66
2023-03-29T17:43:16.862Z,98046.69
2023-03-29T17:46:23.294Z,98042.00
2023-03-29T17:49:26.162Z,98040.38
2023-03-29T17:52:29.643Z,98037.13
2023-03-29T17:55:31.991Z,98033.00
2023-03-29T17:58:34.520Z,98045.81
2023-03-29T18:01:39.257Z,98014.63
2023-03-29T18:04:42.245Z,98049.41
2023-03-29T18:07:46.160Z,98043.91
2023-03-29T18:10:48.880Z,98046.09
2023-03-29T18:13:55.192Z,98045.28
2023-03-29T18:16:57.678Z,98052.19
2023-03-29T18:20:00.346Z,98054.03
2023-03-29T18:23:03.147Z,98053.41
2023-03-29T18:26:07.080Z,98023.50
2023-03-29T18:29:10.022Z,98054.22
2023-03-29T18:32:13.265Z,98055.41
2023-03-29T18:35:16.327Z,98054.44
2023-03-29T18:38:21.690Z,98055.22
2023-03-29T18:41:24.636Z,98055.41
2023-03-29T18:44:28.035Z,98051.72
2023-03-29T18:47:30.955Z,98055.00
2023-03-29T18:50:35.508Z,98050.09
2023-03-29T18:53:42.233Z,98053.53
2023-03-29T18:56:45.138Z,98049.09
2023-03-29T18:59:49.044Z,98056.16
2023-03-29T19:02:52.202Z,98048.44
2023-03-29T19:05:56.069Z,98049.41
2023-03-29T19:09:02.545Z,98050.63
2023-03-29T19:12:05.771Z,98058.34
2023-03-29T19:15:10.292Z,98057.53
2023-03-29T19:18:14.744Z,98057.53
2023-03-29T19:21:20.778Z,98056.09
2023-03-29T19:24:25.080Z,98056.09
2023-03-29T19:27:28.257Z,98063.00
2023-03-29T19:30:32.125Z,98052.03
2023-03-29T19:33:37.012Z,98059.94
2023-03-29T19:36:40.171Z,98059.13
2023-03-29T19:39:42.826Z,98058.50
2023-03-29T19:42:48.183Z,98059.13
2023-03-29T19:45:51.333Z,98028.13
2023-03-29T19:48:56.387Z,98054.66
2023-03-29T19:52:00.522Z,98066.81
2023-03-29T19:55:03.269Z,98060.75
2023-03-29T19:58:07.873Z,98051.81
2023-03-29T20:01:10.186Z,98041.19
2023-03-29T20:04:12.654Z,98064.19
2023-03-29T20:07:15.274Z,98061.75
2023-03-29T20:10:17.980Z,98017.13
2023-03-29T20:13:31.323Z,98052.22
2023-03-29T20:16:41.999Z,98054.84
2023-03-29T20:19:44.257Z,98046.94
2023-03-29T20:22:46.530Z,98047.75
2023-03-29T20:25:48.852Z,98042.69
2023-03-29T20:28:51.198Z,98036.56
2023-03-29T20:31:53.750Z,98006.00
2023-03-29T20:34:56.140Z,98032.28
2023-03-29T20:37:58.188Z,98032.28
2023-03-29T20:41:00.339Z,98032.28
2023-03-29T20:44:03.108Z,98030.56
2023-03-29T20:47:08.732Z,98025.50
2023-03-29T20:50:11.079Z,98025.88
2023-03-29T20:53:13.905Z,98022.38
2023-03-29T20:56:16.100Z,98023.00
2023-03-29T20:59:18.268Z,98023.41
2023-03-29T21:02:23.038Z,98005.28
2023-03-29T21:05:27.197Z,98017.91
2023-03-29T21:08:29.915Z,98017.72
2023-03-29T21:11:32.218Z,98008.00
2023-03-29T21:14:34.207Z,98006.19
2023-03-29T21:17:37.368Z,98006.19
2023-03-29T21:20:39.468Z,98001.75
2023-03-29T21:23:41.474Z,97993.44
2023-03-29T21:26:43.545Z,97997.28
2023-03-29T21:29:45.830Z,97975.28
2023-03-29T21:32:47.939Z,97989.75
2023-03-29T21:35:50.770Z,97986.88
2023-03-29T21:38:53.014Z,97986.81
2023-03-29T21:41:56.270Z,97981.13
2023-03-29T21:44:58.312Z,97979.63
2023-03-29T21:48:00.560Z,97973.03
2023-03-29T21:51:03.172Z,97969.91
2023-03-29T21:54:05.487Z,97960.06
2023-03-29T21:57:07.524Z,97963.19
2023-03-29T22:00:11.487Z,97969.13
2023-03-29T22:03:14.371Z,97957.84
2023-03-29T22:06:16.476Z,97959.94
2023-03-29T22:09:20.636Z,97966.44
2023-03-29T22:12:22.946Z,97955.81
2023-03-29T22:15:25.059Z,97955.66
2023-03-29T22:18:30.300Z,97954.94
2023-03-29T22:21:32.577Z,97952.50
2023-03-29T22:24:34.626Z,97951.69
2023-03-29T22:27:36.931Z,97942.34
2023-03-29T22:30:39.149Z,97943.69
2023-03-29T22:33:42.196Z,97941.44
2023-03-29T22:36:44.302Z,97944.34
2023-03-29T22:39:46.610Z,97935.53
2023-03-29T22:42:48.619Z,97944.22
2023-03-29T22:45:50.750Z,97901.03
2023-03-29T22:48:53.277Z,97940.44
2023-03-29T22:51:55.478Z,97934.16
2023-03-29T22:54:57.510Z,97932.69
2023-03-29T22:57:59.531Z,97934.00
2023-03-29T23:01:02.063Z,97927.78
2023-03-29T23:04:04.714Z,97934.72
2023-03-29T23:07:06.865Z,97927.41
2023-03-29T23:10:09.469Z,97936.63
2023-03-29T23:13:13.732Z,97936.91
2023-03-29T23:16:16.846Z,97926.94
2023-03-29T23:19:18.888Z,97926.31
2023-03-29T23:22:21.311Z,97925.41
2023-03-29T23:25:24.834Z,97926.09
2023-03-29T23:28:30.670Z,97927.38
2023-03-29T23:31:33.981Z,97923.13
2023-03-29T23:34:36.232Z,97917.44
2023-03-29T23:37:38.330Z,97920.69
2023-03-29T23:40:40.337Z,97915.25
2023-03-29T23:43:44.576Z,97915.06
2023-03-29T23:46:46.633Z,97907.03
2023-03-29T23:49:48.709Z,97911.72
2023-03-29T23:52:51.778Z,97910.34
2023-03-29T23:56:00.612Z,97905.91
2023-03-29T23:59:04.639Z,97901.31
